Capitol Logistics 312


KSEA
Seattle-Tacoma International Airport
Seattle, Washington, US
KIAD
Washington Dulles International Airport
Dulles, Virginia, US

Activity Log

Date Flight Route Aircraft Duration
04/15/2020 CPX312 MONTN1 SEA J12 BLUIT J90 MWH J34 HLN J90 RWF J34 DJB J162 MGW GIBBZ3 B763 4h 33m
06/19/2019 CPX312 SEA NORMY J90 MWH HLN DPR MCW DBQ JOT J30 APE AIR J162 MGW GIBBZ2 B763 4h 54m

Route Details

Aircraft Information
Primary: Boeing 767-300BDSF
Backup: Not Available
Route Data
Distance: 20001nm
Sched. Duration: 5h 00m
Avg. Duration: 4h 43m (-56m)
Times Flown: 2
Recm'd Route: SEA NORMY J90 MWH HLN DPR MCW DBQ JOT J30 APE AIR J162 MGW GIBBZ2
Planned Altitude: 33,000ft
Origin Wx: KSEA 290953Z 29003KT 10SM BKN180 17/09 A2995 RMK AO2 SLP145 T01670089
Dest. Wx: KIAD 290952Z 19008KT 10SM BKN012 BKN130 OVC250 23/21 A3002 RMK AO2 SLP163 VCSH T02330211
Notes:

Financial History
Total Freight: 156,628lbs
Average Load: 78,314lbs/flt
Fuel Used: 92,764lbs
Avg. Fuel Used: 46,382lbs/flt
Fuel Expense: $103,896
Avg. Fuel Expense: $51,948
Avg. Fuel Cost: $1.12/lbs
Total Gross Income: $208,647
Pilot Pay: $488
Total Expenses: $22,638
Total Revenue: $79,818
Average Revenue: $104,323.47